createdAt,value
2022-07-28T00:00:18.233Z,99413.66
2022-07-28T00:03:05.557Z,99419.81
2022-07-28T00:05:53.142Z,99419.00
2022-07-28T00:08:40.382Z,99413.00
2022-07-28T00:11:29.238Z,99416.56
2022-07-28T00:14:16.651Z,99408.94
2022-07-28T00:17:04.453Z,99398.75
2022-07-28T00:19:51.965Z,99399.53
2022-07-28T00:22:43.847Z,99397.91
2022-07-28T00:25:31.112Z,99400.66
2022-07-28T00:28:19.977Z,99388.53
2022-07-28T00:31:10.906Z,99392.88
2022-07-28T00:34:01.243Z,99388.81
2022-07-28T00:36:48.746Z,99392.41
2022-07-28T00:39:36.556Z,99394.16
2022-07-28T00:42:23.588Z,99395.97
2022-07-28T00:45:13.222Z,99390.94
2022-07-28T00:48:00.389Z,99396.28
2022-07-28T00:50:48.479Z,99387.66
2022-07-28T00:53:35.960Z,99388.63
2022-07-28T00:56:23.665Z,99380.06
2022-07-28T00:59:11.218Z,99370.66
2022-07-28T01:02:00.215Z,99378.59
2022-07-28T01:04:47.746Z,99376.16
2022-07-28T01:07:44.171Z,99370.16
2022-07-28T01:10:41.102Z,99376.31
2022-07-28T01:13:41.068Z,99363.50
2022-07-28T01:16:29.724Z,99371.28
2022-07-28T01:19:36.390Z,99367.06
2022-07-28T01:22:27.318Z,99374.03
2022-07-28T01:25:24.954Z,99367.22
2022-07-28T01:28:27.308Z,99368.31
2022-07-28T01:31:23.705Z,99361.50
2022-07-28T01:34:16.353Z,99360.69
2022-07-28T01:37:09.965Z,99363.28
2022-07-28T01:40:02.583Z,99360.84
2022-07-28T01:42:56.115Z,99345.47
2022-07-28T01:45:46.206Z,99355.00
2022-07-28T01:48:36.148Z,99354.19
2022-07-28T01:51:26.398Z,99351.78
2022-07-28T01:54:15.262Z,99354.53
2022-07-28T01:57:04.529Z,99352.88
2022-07-28T01:59:53.670Z,99351.94
2022-07-28T02:02:44.458Z,99350.47
2022-07-28T02:05:34.454Z,99340.38
2022-07-28T02:08:24.131Z,99334.25
2022-07-28T02:11:28.738Z,99341.38
2022-07-28T02:14:20.485Z,99325.16
2022-07-28T02:17:12.953Z,99328.72
2022-07-28T02:20:01.226Z,99323.53
2022-07-28T02:22:52.057Z,99320.28
2022-07-28T02:25:41.173Z,99324.66
2022-07-28T02:28:29.983Z,99323.03
2022-07-28T02:31:26.153Z,99319.63
2022-07-28T02:34:17.588Z,99323.34
2022-07-28T02:37:08.944Z,99312.16
2022-07-28T02:40:01.478Z,99316.56
2022-07-28T02:42:51.493Z,99318.16
2022-07-28T02:45:44.545Z,99312.16
2022-07-28T02:48:36.988Z,99312.16
2022-07-28T02:51:26.377Z,99307.16
2022-07-28T02:54:14.875Z,99305.34
2022-07-28T02:57:04.748Z,99309.75
2022-07-28T02:59:52.589Z,99304.56
2022-07-28T03:02:41.402Z,99313.28
2022-07-28T03:05:29.307Z,99313.28
2022-07-28T03:08:17.732Z,99321.06
2022-07-28T03:11:09.707Z,99311.53
2022-07-28T03:13:58.285Z,99310.69
2022-07-28T03:16:50.038Z,99315.88
2022-07-28T03:19:40.732Z,99320.09
2022-07-28T03:22:27.895Z,99321.06
2022-07-28T03:25:29.996Z,99316.03
2022-07-28T03:28:21.498Z,99326.41
2022-07-28T03:31:12.956Z,99321.38
2022-07-28T03:34:00.659Z,99322.34
2022-07-28T03:36:52.730Z,99324.28
2022-07-28T03:39:47.034Z,99317.47
2022-07-28T03:42:35.252Z,99316.00
2022-07-28T03:45:22.900Z,99327.16
2022-07-28T03:48:11.728Z,99320.50
2022-07-28T03:50:59.229Z,99319.06
2022-07-28T03:53:46.577Z,99320.03
2022-07-28T03:56:34.031Z,99323.56
2022-07-28T03:59:21.550Z,99323.06
2022-07-28T04:02:09.030Z,99313.69
2022-07-28T04:04:57.505Z,99316.41
2022-07-28T04:07:46.155Z,99315.75
2022-07-28T04:10:33.731Z,99314.13
2022-07-28T04:13:21.529Z,99313.31
2022-07-28T04:16:09.041Z,99311.53
2022-07-28T04:18:56.180Z,99311.69
2022-07-28T04:21:44.651Z,99316.06
2022-07-28T04:24:31.863Z,99307.47
2022-07-28T04:27:19.104Z,99312.81
2022-07-28T04:30:11.028Z,99311.19
2022-07-28T04:32:58.173Z,99313.75
2022-07-28T04:35:46.115Z,99305.19
2022-07-28T04:38:36.279Z,99304.41
2022-07-28T04:41:23.798Z,99303.56
2022-07-28T04:44:12.297Z,99304.56
2022-07-28T04:46:59.832Z,99298.53
2022-07-28T04:49:46.934Z,99301.13
2022-07-28T04:52:34.680Z,99301.13
2022-07-28T04:55:23.563Z,99299.50
2022-07-28T04:58:12.541Z,99304.56
2022-07-28T05:00:59.801Z,99307.00
2022-07-28T05:03:47.549Z,99303.41
2022-07-28T05:06:36.569Z,99307.63
2022-07-28T05:09:24.161Z,99304.88
2022-07-28T05:12:12.641Z,99310.91
2022-07-28T05:15:00.619Z,99305.56
2022-07-28T05:17:47.770Z,99295.03
2022-07-28T05:20:35.567Z,99301.69
2022-07-28T05:23:22.796Z,99294.72
2022-07-28T05:26:10.181Z,99294.41
2022-07-28T05:28:58.769Z,99304.78
2022-07-28T05:31:46.075Z,99306.13
2022-07-28T05:34:33.069Z,99301.56
2022-07-28T05:37:20.640Z,99300.63
2022-07-28T05:40:13.788Z,99296.91
2022-07-28T05:43:00.875Z,99301.09
2022-07-28T05:45:49.700Z,99304.38
2022-07-28T05:48:36.851Z,99301.47
2022-07-28T05:51:26.767Z,99311.66
2022-07-28T05:54:14.743Z,99311.53
2022-07-28T05:57:02.271Z,99319.78
2022-07-28T05:59:49.287Z,99311.06
2022-07-28T06:02:38.349Z,99317.03
2022-07-28T06:05:26.324Z,99315.13
2022-07-28T06:08:13.609Z,99311.56
2022-07-28T06:11:02.086Z,99319.19
2022-07-28T06:13:49.525Z,99310.41
2022-07-28T06:16:37.141Z,99306.06
2022-07-28T06:19:25.873Z,99309.28
2022-07-28T06:22:15.374Z,99302.34
2022-07-28T06:25:02.726Z,99309.00
2022-07-28T06:27:52.464Z,99316.63
2022-07-28T06:30:39.938Z,99309.50
2022-07-28T06:33:27.003Z,99311.91
2022-07-28T06:36:15.746Z,99304.81
2022-07-28T06:39:03.344Z,99295.09
2022-07-28T06:41:50.645Z,99305.03
2022-07-28T06:44:57.961Z,99309.91
2022-07-28T06:47:47.291Z,99304.38
2022-07-28T06:50:35.445Z,99301.50
2022-07-28T06:53:24.480Z,99307.34
2022-07-28T06:56:13.871Z,99295.69
2022-07-28T06:59:03.370Z,99297.97
2022-07-28T07:01:50.606Z,99301.03
2022-07-28T07:04:38.427Z,99298.13
2022-07-28T07:07:26.368Z,99308.19
2022-07-28T07:10:14.988Z,99308.69
2022-07-28T07:13:02.332Z,99306.75
2022-07-28T07:15:49.487Z,99303.84
2022-07-28T07:18:36.657Z,99301.75
2022-07-28T07:21:24.130Z,99311.00
2022-07-28T07:24:13.431Z,99301.25
2022-07-28T07:27:02.530Z,99299.97
2022-07-28T07:29:49.819Z,99303.84
2022-07-28T07:32:37.677Z,99294.16
2022-07-28T07:35:25.013Z,99295.44
2022-07-28T07:38:12.154Z,99292.69
2022-07-28T07:41:00.733Z,99287.19
2022-07-28T07:43:50.178Z,99291.22
2022-07-28T07:46:38.544Z,99281.53
2022-07-28T07:49:25.950Z,99293.41
2022-07-28T07:52:33.343Z,99282.16
2022-07-28T07:55:20.847Z,99291.25
2022-07-28T07:58:08.361Z,99288.69
2022-07-28T08:00:57.127Z,99281.56
2022-07-28T08:03:45.010Z,99280.56
2022-07-28T08:06:37.369Z,99289.97
2022-07-28T08:09:27.024Z,99283.97
2022-07-28T08:12:14.576Z,99295.00
2022-07-28T08:15:01.767Z,99295.00
2022-07-28T08:17:50.281Z,99290.47
2022-07-28T08:20:37.703Z,99294.53
2022-07-28T08:23:28.468Z,99296.16
2022-07-28T08:26:15.624Z,99295.81
2022-07-28T08:29:03.186Z,99289.66
2022-07-28T08:31:50.789Z,99289.50
2022-07-28T08:34:39.739Z,99289.34
2022-07-28T08:37:26.899Z,99295.16
2022-07-28T08:40:15.765Z,99294.03
2022-07-28T08:43:12.201Z,99292.09
2022-07-28T08:46:02.127Z,99284.13
2022-07-28T08:48:50.232Z,99284.75
2022-07-28T08:51:39.540Z,99282.84
2022-07-28T08:54:29.520Z,99287.06
2022-07-28T08:57:22.258Z,99279.91
2022-07-28T09:00:11.818Z,99276.34
2022-07-28T09:02:59.821Z,99268.38
2022-07-28T09:05:47.599Z,99275.19
2022-07-28T09:08:36.527Z,99270.63
2022-07-28T09:11:23.696Z,99270.50
2022-07-28T09:14:11.401Z,99266.75
2022-07-28T09:17:01.675Z,99263.00
2022-07-28T09:19:48.704Z,99269.81
2022-07-28T09:22:36.446Z,99266.09
2022-07-28T09:25:25.589Z,99264.78
2022-07-28T09:28:15.828Z,99271.44
2022-07-28T09:31:09.475Z,99255.53
2022-07-28T09:34:02.182Z,99255.19
2022-07-28T09:36:49.409Z,99250.66
2022-07-28T09:39:38.322Z,99254.69
2022-07-28T09:42:27.343Z,99251.00
2022-07-28T09:45:24.047Z,99251.31
2022-07-28T09:48:14.040Z,99249.34
2022-07-28T09:51:14.134Z,99249.00
2022-07-28T09:54:12.897Z,99244.47
2022-07-28T09:57:00.744Z,99240.53
2022-07-28T09:59:52.149Z,99238.25
2022-07-28T10:02:50.830Z,99240.34
2022-07-28T10:05:42.040Z,99223.44
2022-07-28T10:08:47.215Z,99235.09
2022-07-28T10:11:39.445Z,99230.38
2022-07-28T10:14:33.982Z,99229.06
2022-07-28T10:17:31.263Z,99226.91
2022-07-28T10:20:18.433Z,99230.00
2022-07-28T10:23:07.768Z,99221.84
2022-07-28T10:25:58.061Z,99217.50
2022-07-28T10:28:51.362Z,99223.00
2022-07-28T10:31:46.990Z,99217.25
2022-07-28T10:34:39.411Z,99214.81
2022-07-28T10:37:29.845Z,99207.31
2022-07-28T10:40:20.113Z,99200.78
2022-07-28T10:43:07.559Z,99204.00
2022-07-28T10:46:05.549Z,99215.84
2022-07-28T10:48:55.355Z,99204.13
2022-07-28T10:52:04.963Z,99210.59
2022-07-28T10:55:07.672Z,99192.41
2022-07-28T10:58:11.240Z,99186.22
2022-07-28T11:01:05.589Z,99192.22
2022-07-28T11:03:53.328Z,99188.66
2022-07-28T11:06:42.428Z,99191.06
2022-07-28T11:09:31.164Z,99191.06
2022-07-28T11:12:48.243Z,99191.91
2022-07-28T11:15:38.305Z,99179.03
2022-07-28T11:18:25.908Z,99183.25
2022-07-28T11:21:16.589Z,99184.72
2022-07-28T11:24:04.382Z,99175.94
2022-07-28T11:26:54.359Z,99181.94
2022-07-28T11:29:47.985Z,99177.56
2022-07-28T11:33:02.433Z,99176.72
2022-07-28T11:36:02.664Z,99173.16
2022-07-28T11:39:23.515Z,99175.75
2022-07-28T11:42:32.416Z,99168.75
2022-07-28T11:45:26.509Z,99166.97
2022-07-28T11:48:26.403Z,99165.00
2022-07-28T11:51:14.640Z,99157.00
2022-07-28T11:54:02.909Z,99162.06
2022-07-28T11:56:59.327Z,99163.47
2022-07-28T11:59:53.366Z,99152.09
2022-07-28T12:02:42.665Z,99149.31
2022-07-28T12:05:34.340Z,99155.16
2022-07-28T12:08:29.639Z,99152.38
2022-07-28T12:11:17.338Z,99154.63
2022-07-28T12:14:10.053Z,99153.66
2022-07-28T12:16:58.877Z,99146.63
2022-07-28T12:19:46.114Z,99148.09
2022-07-28T12:22:34.237Z,99137.50
2022-07-28T12:25:22.789Z,99134.56
2022-07-28T12:28:20.345Z,99141.34
2022-07-28T12:31:15.054Z,99134.38
2022-07-28T12:34:07.692Z,99125.59
2022-07-28T12:36:57.079Z,99133.22
2022-07-28T12:39:52.632Z,99117.59
2022-07-28T12:42:40.178Z,99120.22
2022-07-28T12:45:28.616Z,99125.22
2022-07-28T12:48:18.815Z,99119.06
2022-07-28T12:51:08.097Z,99121.50
2022-07-28T12:53:58.737Z,99113.50
2022-07-28T12:56:47.479Z,99121.13
2022-07-28T12:59:36.018Z,99116.56
2022-07-28T13:02:37.513Z,99106.97
2022-07-28T13:05:54.562Z,99108.59
2022-07-28T13:08:45.181Z,99105.97
2022-07-28T13:11:45.838Z,99108.22
2022-07-28T13:14:41.255Z,99102.84
2022-07-28T13:17:31.863Z,99097.63
2022-07-28T13:20:19.423Z,99091.44
2022-07-28T13:23:06.708Z,99098.28
2022-07-28T13:25:56.244Z,99094.66
2022-07-28T13:28:44.258Z,99093.69
2022-07-28T13:31:33.716Z,99093.69
2022-07-28T13:34:20.996Z,99096.28
2022-07-28T13:37:08.201Z,99080.66
2022-07-28T13:39:55.602Z,99092.88
2022-07-28T13:42:53.367Z,99085.06
2022-07-28T13:45:47.422Z,99088.66
2022-07-28T13:48:36.052Z,99086.84
2022-07-28T13:51:23.383Z,99079.88
2022-07-28T13:54:10.912Z,99069.28
2022-07-28T13:56:58.195Z,99067.47
2022-07-28T13:59:47.159Z,99062.91
2022-07-28T14:02:35.147Z,99063.69
2022-07-28T14:05:22.905Z,99056.72
2022-07-28T14:08:10.497Z,99061.09
2022-07-28T14:11:04.606Z,99054.28
2022-07-28T14:13:55.505Z,99049.06
2022-07-28T14:16:45.010Z,99049.06
2022-07-28T14:19:39.100Z,99049.06
2022-07-28T14:22:27.174Z,99052.69
2022-07-28T14:25:20.600Z,99055.28
2022-07-28T14:28:08.553Z,99055.28
2022-07-28T14:30:55.708Z,99047.47
2022-07-28T14:33:48.350Z,99047.47
2022-07-28T14:36:37.863Z,99047.47
2022-07-28T14:39:25.277Z,99046.66
2022-07-28T14:42:13.133Z,99042.28
2022-07-28T14:45:02.362Z,99044.03
2022-07-28T14:47:49.546Z,99041.44
2022-07-28T14:50:38.220Z,99039.66
2022-07-28T14:53:28.124Z,99040.47
2022-07-28T14:56:16.210Z,99040.47
2022-07-28T14:59:03.330Z,99037.06
2022-07-28T15:01:51.003Z,99035.44
2022-07-28T15:04:38.106Z,99038.03
2022-07-28T15:07:26.835Z,99038.84
2022-07-28T15:10:14.165Z,99045.22
2022-07-28T15:13:01.422Z,99041.81
2022-07-28T15:15:49.111Z,99033.38
2022-07-28T15:18:36.053Z,99040.38
2022-07-28T15:21:23.345Z,99033.53
2022-07-28T15:24:12.255Z,99036.97
2022-07-28T15:27:00.563Z,99049.16
2022-07-28T15:29:52.168Z,99045.75
2022-07-28T15:32:54.634Z,99043.16
2022-07-28T15:35:57.880Z,99047.56
2022-07-28T15:38:48.923Z,99039.75
2022-07-28T15:41:39.300Z,99029.34
2022-07-28T15:44:26.642Z,99031.97
2022-07-28T15:47:13.872Z,99023.13
2022-07-28T15:50:01.017Z,99019.75
2022-07-28T15:52:48.320Z,99015.34
2022-07-28T15:55:35.387Z,99020.53
2022-07-28T15:58:26.319Z,99009.16
2022-07-28T16:01:14.149Z,99014.53
2022-07-28T16:04:02.439Z,99007.53
2022-07-28T16:07:07.128Z,99010.13
2022-07-28T16:09:56.166Z,99004.13
2022-07-28T16:12:43.621Z,99001.53
2022-07-28T16:15:32.534Z,99000.53
2022-07-28T16:18:19.751Z,98994.50
2022-07-28T16:21:08.652Z,98996.13
2022-07-28T16:23:55.786Z,98996.13
2022-07-28T16:26:42.968Z,98996.13
2022-07-28T16:29:30.230Z,98996.94
2022-07-28T16:32:19.001Z,98991.72
2022-07-28T16:35:08.524Z,98986.53
2022-07-28T16:37:55.808Z,98981.31
2022-07-28T16:40:42.962Z,98983.91
2022-07-28T16:43:30.377Z,98983.13
2022-07-28T16:46:17.840Z,98975.31
2022-07-28T16:49:06.729Z,98983.75
2022-07-28T16:51:55.029Z,98982.94
2022-07-28T16:54:42.241Z,98968.16
2022-07-28T16:57:29.497Z,98979.34
2022-07-28T17:00:18.195Z,98975.97
2022-07-28T17:03:05.363Z,98969.72
2022-07-28T17:05:55.317Z,98960.34
2022-07-28T17:08:42.362Z,98961.94
2022-07-28T17:11:29.729Z,98957.75
2022-07-28T17:14:19.052Z,98948.91
2022-07-28T17:17:06.450Z,98956.72
2022-07-28T17:19:53.895Z,98950.72
2022-07-28T17:22:42.921Z,98956.72
2022-07-28T17:28:37.370Z,98958.72
2022-07-28T17:31:24.494Z,98962.31
2022-07-28T17:34:11.937Z,98957.09
2022-07-28T17:36:59.368Z,98963.28
2022-07-28T17:39:48.031Z,98959.09
2022-07-28T17:42:35.445Z,98960.88
2022-07-28T17:45:24.126Z,98971.28
2022-07-28T17:48:11.546Z,98971.47
2022-07-28T17:50:58.924Z,98974.06
2022-07-28T17:53:46.207Z,98976.06
2022-07-28T17:56:36.631Z,98978.81
2022-07-28T17:59:24.579Z,98984.22
2022-07-28T18:02:21.564Z,98982.78
2022-07-28T18:05:10.039Z,98982.94
2022-07-28T18:07:59.302Z,98984.91
2022-07-28T18:10:47.662Z,98991.09
2022-07-28T18:13:36.133Z,98992.09
2022-07-28T18:16:23.384Z,98991.47
2022-07-28T18:19:10.381Z,98995.84
2022-07-28T18:21:57.797Z,98997.00
2022-07-28T18:24:45.198Z,99004.81
2022-07-28T18:27:32.974Z,99007.59
2022-07-28T18:30:21.976Z,99011.38
2022-07-28T18:33:09.415Z,99006.53
2022-07-28T18:35:56.541Z,99006.53
2022-07-28T18:38:43.672Z,99008.53
2022-07-28T18:41:34.518Z,99014.88
2022-07-28T18:44:34.323Z,99005.66
2022-07-28T18:47:22.781Z,99008.44
2022-07-28T18:50:27.871Z,99007.78
2022-07-28T18:53:19.010Z,99013.16
2022-07-28T18:56:06.728Z,99017.75
2022-07-28T18:58:56.096Z,99013.53
2022-07-28T19:01:43.468Z,99011.13
2022-07-28T19:04:32.054Z,99006.06
2022-07-28T19:07:19.607Z,99008.06
2022-07-28T19:10:09.679Z,99006.63
2022-07-28T19:12:56.972Z,99010.00
2022-07-28T19:15:44.383Z,99019.81
2022-07-28T19:18:31.884Z,99019.16
2022-07-28T19:21:20.359Z,99015.94
2022-07-28T19:24:10.358Z,99023.09
2022-07-28T19:26:58.093Z,99027.50
2022-07-28T19:29:45.109Z,99026.84
2022-07-28T19:32:32.472Z,99025.44
2022-07-28T19:35:19.990Z,99034.22
2022-07-28T19:38:08.585Z,99033.59
2022-07-28T19:40:56.038Z,99027.75
2022-07-28T19:43:43.311Z,99033.16
2022-07-28T19:46:31.063Z,99029.91
2022-07-28T19:49:18.708Z,99031.06
2022-07-28T19:52:06.340Z,99031.25
2022-07-28T19:54:55.824Z,99025.41
2022-07-28T19:57:45.216Z,99025.72
2022-07-28T20:00:32.729Z,99034.53
2022-07-28T20:04:02.101Z,99042.47
2022-07-28T20:06:29.158Z,99042.84
2022-07-28T20:09:17.735Z,99053.22
2022-07-28T20:12:07.890Z,99056.00
2022-07-28T20:14:56.786Z,99066.59
2022-07-28T20:17:44.162Z,99066.75
2022-07-28T20:20:31.576Z,99074.72
2022-07-28T20:23:18.687Z,99073.13
2022-07-28T20:26:05.947Z,99076.69
2022-07-28T20:28:55.469Z,99076.06
2022-07-28T20:31:42.518Z,99078.81
2022-07-28T20:34:30.211Z,99089.38
2022-07-28T20:37:27.838Z,99092.16
2022-07-28T20:40:23.797Z,99082.75
2022-07-28T20:43:11.186Z,99081.94
2022-07-28T20:46:00.100Z,99081.31
2022-07-28T20:48:47.232Z,99084.72
2022-07-28T20:51:34.585Z,99084.91
2022-07-28T20:54:22.344Z,99083.44
2022-07-28T20:57:09.429Z,99084.44
2022-07-28T20:59:56.688Z,99091.59
2022-07-28T21:02:45.509Z,99096.94
2022-07-28T21:05:35.818Z,99102.31
2022-07-28T21:08:23.529Z,99101.50
2022-07-28T21:11:11.072Z,99110.44
2022-07-28T21:13:59.044Z,99120.06
2022-07-28T21:16:46.369Z,99123.63
2022-07-28T21:19:35.021Z,99118.59
2022-07-28T21:22:22.507Z,99117.78
2022-07-28T21:25:10.510Z,99122.97
2022-07-28T21:28:14.949Z,99126.56
2022-07-28T21:31:02.018Z,99130.31
2022-07-28T21:33:49.331Z,99127.72
2022-07-28T21:36:39.431Z,99120.09
2022-07-28T21:39:26.575Z,99130.50
2022-07-28T21:42:13.618Z,99122.03
2022-07-28T21:45:00.944Z,99125.63
2022-07-28T21:47:48.538Z,99130.81
2022-07-28T21:50:38.240Z,99124.81
2022-07-28T21:53:27.002Z,99130.19
2022-07-28T21:56:14.494Z,99125.00
2022-07-28T21:59:01.799Z,99119.13
2022-07-28T22:01:49.233Z,99124.34
2022-07-28T22:04:36.289Z,99117.56
2022-07-28T22:07:23.336Z,99120.16
2022-07-28T22:10:12.279Z,99121.13
2022-07-28T22:13:00.588Z,99123.88
2022-07-28T22:15:48.036Z,99117.88
2022-07-28T22:18:35.495Z,99112.66
2022-07-28T22:21:22.942Z,99113.50
2022-07-28T22:24:10.382Z,99107.47
2022-07-28T22:26:59.310Z,99113.81
2022-07-28T22:29:51.580Z,99119.00
2022-07-28T22:32:39.947Z,99116.59
2022-07-28T22:35:27.229Z,99126.00
2022-07-28T22:38:14.490Z,99127.81
2022-07-28T22:41:01.777Z,99120.00
2022-07-28T22:43:50.412Z,99124.38
2022-07-28T22:46:37.511Z,99126.81
2022-07-28T22:49:25.210Z,99142.25
2022-07-28T22:52:12.306Z,99137.03
2022-07-28T22:55:00.151Z,99137.84
2022-07-28T22:57:47.518Z,99146.25
2022-07-28T23:00:36.788Z,99145.47
2022-07-28T23:03:23.965Z,99150.66
2022-07-28T23:06:11.381Z,99157.47
2022-07-28T23:08:58.443Z,99158.28
2022-07-28T23:11:55.726Z,99159.09
2022-07-28T23:14:42.994Z,99153.06
2022-07-28T23:17:31.458Z,99156.50
2022-07-28T23:20:18.851Z,99157.31
2022-07-28T23:23:06.255Z,99159.09
2022-07-28T23:25:53.728Z,99158.28
2022-07-28T23:28:41.162Z,99159.09
2022-07-28T23:31:28.796Z,99161.69
2022-07-28T23:34:17.943Z,99159.91
2022-07-28T23:37:05.416Z,99156.50
2022-07-28T23:39:52.888Z,99154.69
2022-07-28T23:42:40.381Z,99151.31
2022-07-28T23:45:28.265Z,99149.50
2022-07-28T23:48:15.288Z,99158.09
2022-07-28T23:51:03.873Z,99150.31
2022-07-28T23:53:56.013Z,99151.31
2022-07-28T23:56:43.905Z,99144.31
2022-07-28T23:59:30.926Z,99147.72
